aviador You're here:

KTCM Decoded Metar

TACOMA in WA, USA
Report Time2017-08-20 12:58:00
UTC Time2017-08-20 13:41:05
Flight Rules vfr VFR
Wind180° at 03 kt
W.Decomp.*RWY 16: 3.0 kt HW -0 kt LCW
W.Rank180° ranks 2
Current wind is below 180° avg. (5.4)
Visibility9999 m
Phenomena:N/A
Clouds:N/A
CeilingNone
Temp10°C (ISA -4)
Dew Point10°C (100% RH)
AAT9.0°C
QNH1021 hPa
Density Alt-305 ft
Elevation322 ft
Report Wrong Elevation
Raw Report
KTCM 201258Z AUTO 18003KT 10SM CLR 10/10 A3016 RMK AO2 SLP216
T00990099 $=

Extra information for KTCM:More info

Metar Taf Metar & Taf Last 4 Metars F.Rules Stats Wind Profile Meteogram Temp Stats Airport Information Weather charts Add Link Nearby VenuesMetar ALERT Operation Metar Decoded Social comments

AIRNAV info for KTCM